ITH weather

Ithaca Tompkins Regional Airport
Ithaca, New York, United States

Public forecast

Using degrees Fahrenheit for public forecast. Weather courtesy of forecast.io.

METAR (pilot weather report)

Retrieved 2019/09/23 07:56 UTC (13 minutes ago):

KITH 230756Z AUTO 17005KT 10SM CLR 21/18 A2991 RMK AO2 SLP118 T02060183

TAF (pilot weather forecast)

Retrieved 2019/09/23 06:39 UTC (1 hour ago):

TAF KITH 230536Z 2306/2406 19007KT P6SM BKN200 FM230900 19007KT P6SM SCT070 OVC200 WS020/25035KT FM231300 23010KT P6SM BKN060 OVC120 FM231900 23012G20KT P6SM -SHRA BKN050 FM240000 28010KT P6SM SCT050 BKN100